sensor_id;sensor_type;location;lat;lon;timestamp;temperature;humidity
11965;DHT22;6042;41.326;19.826;2022-12-24T00:01:35;9.40;99.90
11965;DHT22;6042;41.326;19.826;2022-12-24T00:04:03;9.30;99.90
11965;DHT22;6042;41.326;19.826;2022-12-24T00:06:32;9.40;99.90
11965;DHT22;6042;41.326;19.826;2022-12-24T00:09:01;9.40;99.90
11965;DHT22;6042;41.326;19.826;2022-12-24T00:11:29;9.40;99.90
11965;DHT22;6042;41.326;19.826;2022-12-24T00:13:59;9.30;99.90
11965;DHT22;6042;41.326;19.826;2022-12-24T00:16:28;9.30;99.90
11965;DHT22;6042;41.326;19.826;2022-12-24T00:18:56;9.40;99.90
11965;DHT22;6042;41.326;19.826;2022-12-24T00:21:25;9.40;99.90
11965;DHT22;6042;41.326;19.826;2022-12-24T00:23:53;9.50;99.90
11965;DHT22;6042;41.326;19.826;2022-12-24T00:26:22;9.40;99.90
11965;DHT22;6042;41.326;19.826;2022-12-24T00:28:50;9.40;99.90
11965;DHT22;6042;41.326;19.826;2022-12-24T00:31:20;9.30;99.90
11965;DHT22;6042;41.326;19.826;2022-12-24T00:33:49;9.30;99.90
11965;DHT22;6042;41.326;19.826;2022-12-24T00:36:18;9.30;99.90
11965;DHT22;6042;41.326;19.826;2022-12-24T00:38:46;9.30;99.90
11965;DHT22;6042;41.326;19.826;2022-12-24T00:41:15;9.30;99.90
11965;DHT22;6042;41.326;19.826;2022-12-24T00:43:57;9.20;99.90
11965;DHT22;6042;41.326;19.826;2022-12-24T00:46:29;9.20;99.90
11965;DHT22;6042;41.326;19.826;2022-12-24T00:48:58;9.20;99.90
11965;DHT22;6042;41.326;19.826;2022-12-24T00:51:27;9.10;99.90
11965;DHT22;6042;41.326;19.826;2022-12-24T00:53:56;9.10;99.90
11965;DHT22;6042;41.326;19.826;2022-12-24T00:56:24;9.20;99.90
11965;DHT22;6042;41.326;19.826;2022-12-24T00:58:53;9.30;99.90
11965;DHT22;6042;41.326;19.826;2022-12-24T01:01:23;9.30;99.90
11965;DHT22;6042;41.326;19.826;2022-12-24T01:03:53;9.30;99.90
11965;DHT22;6042;41.326;19.826;2022-12-24T01:06:42;9.30;99.90
11965;DHT22;6042;41.326;19.826;2022-12-24T01:09:10;9.30;99.90
11965;DHT22;6042;41.326;19.826;2022-12-24T01:11:39;9.30;99.90
11965;DHT22;6042;41.326;19.826;2022-12-24T01:14:08;9.40;99.90
11965;DHT22;6042;41.326;19.826;2022-12-24T01:16:36;9.40;99.90
11965;DHT22;6042;41.326;19.826;2022-12-24T01:19:06;9.40;99.90
11965;DHT22;6042;41.326;19.826;2022-12-24T01:21:35;9.50;99.90
11965;DHT22;6042;41.326;19.826;2022-12-24T01:24:03;9.50;99.90
11965;DHT22;6042;41.326;19.826;2022-12-24T01:26:32;9.50;99.90
11965;DHT22;6042;41.326;19.826;2022-12-24T01:29:00;9.60;99.90
11965;DHT22;6042;41.326;19.826;2022-12-24T01:31:29;9.70;99.90
11965;DHT22;6042;41.326;19.826;2022-12-24T01:33:57;9.70;99.90
11965;DHT22;6042;41.326;19.826;2022-12-24T01:36:27;9.70;99.90
11965;DHT22;6042;41.326;19.826;2022-12-24T01:38:56;9.60;99.90
11965;DHT22;6042;41.326;19.826;2022-12-24T01:41:25;9.60;99.90
11965;DHT22;6042;41.326;19.826;2022-12-24T01:44:22;9.60;99.90
11965;DHT22;6042;41.326;19.826;2022-12-24T01:47:07;9.50;99.90
11965;DHT22;6042;41.326;19.826;2022-12-24T01:49:38;9.50;99.90
11965;DHT22;6042;41.326;19.826;2022-12-24T01:52:11;9.50;99.90
11965;DHT22;6042;41.326;19.826;2022-12-24T01:54:44;9.60;99.90
11965;DHT22;6042;41.326;19.826;2022-12-24T01:57:17;9.70;99.90
11965;DHT22;6042;41.326;19.826;2022-12-24T01:59:50;9.60;99.90
11965;DHT22;6042;41.326;19.826;2022-12-24T02:02:20;9.70;99.90
11965;DHT22;6042;41.326;19.826;2022-12-24T02:04:54;9.80;99.90
11965;DHT22;6042;41.326;19.826;2022-12-24T02:07:26;9.80;99.90
11965;DHT22;6042;41.326;19.826;2022-12-24T02:09:57;9.80;99.90
11965;DHT22;6042;41.326;19.826;2022-12-24T02:12:27;9.80;99.90
11965;DHT22;6042;41.326;19.826;2022-12-24T02:14:57;9.80;99.90
11965;DHT22;6042;41.326;19.826;2022-12-24T02:17:31;9.70;99.90
11965;DHT22;6042;41.326;19.826;2022-12-24T02:23:32;9.90;99.90
11965;DHT22;6042;41.326;19.826;2022-12-24T02:26:16;9.90;99.90
11965;DHT22;6042;41.326;19.826;2022-12-24T02:29:05;10.00;99.90
11965;DHT22;6042;41.326;19.826;2022-12-24T02:31:43;10.00;99.90
11965;DHT22;6042;41.326;19.826;2022-12-24T02:34:18;9.80;99.90
11965;DHT22;6042;41.326;19.826;2022-12-24T02:36:54;9.70;99.90
11965;DHT22;6042;41.326;19.826;2022-12-24T02:39:29;9.60;99.90
11965;DHT22;6042;41.326;19.826;2022-12-24T02:42:02;9.70;99.90
11965;DHT22;6042;41.326;19.826;2022-12-24T02:44:38;9.80;99.90
11965;DHT22;6042;41.326;19.826;2022-12-24T02:47:09;9.80;99.90
11965;DHT22;6042;41.326;19.826;2022-12-24T02:49:41;9.90;99.90
11965;DHT22;6042;41.326;19.826;2022-12-24T02:52:27;10.00;99.90
11965;DHT22;6042;41.326;19.826;2022-12-24T02:54:56;10.00;99.90
11965;DHT22;6042;41.326;19.826;2022-12-24T02:57:30;10.10;99.90
11965;DHT22;6042;41.326;19.826;2022-12-24T03:00:04;10.10;99.90
11965;DHT22;6042;41.326;19.826;2022-12-24T03:02:46;10.10;99.90
11965;DHT22;6042;41.326;19.826;2022-12-24T03:05:21;10.10;99.90
11965;DHT22;6042;41.326;19.826;2022-12-24T03:08:00;10.10;99.90
11965;DHT22;6042;41.326;19.826;2022-12-24T03:10:34;10.00;99.90
11965;DHT22;6042;41.326;19.826;2022-12-24T03:13:08;9.90;99.90
11965;DHT22;6042;41.326;19.826;2022-12-24T03:15:38;10.00;99.90
11965;DHT22;6042;41.326;19.826;2022-12-24T03:18:10;10.00;99.90
11965;DHT22;6042;41.326;19.826;2022-12-24T03:20:41;10.00;99.90
11965;DHT22;6042;41.326;19.826;2022-12-24T03:23:12;10.00;99.90
11965;DHT22;6042;41.326;19.826;2022-12-24T03:25:42;9.90;99.90
11965;DHT22;6042;41.326;19.826;2022-12-24T03:28:13;10.00;99.90
11965;DHT22;6042;41.326;19.826;2022-12-24T03:30:46;9.90;99.90
11965;DHT22;6042;41.326;19.826;2022-12-24T03:33:16;10.00;99.90
11965;DHT22;6042;41.326;19.826;2022-12-24T03:35:45;10.00;99.90
11965;DHT22;6042;41.326;19.826;2022-12-24T03:38:14;10.00;99.90
11965;DHT22;6042;41.326;19.826;2022-12-24T03:40:42;10.00;99.90
11965;DHT22;6042;41.326;19.826;2022-12-24T03:43:11;10.00;99.90
11965;DHT22;6042;41.326;19.826;2022-12-24T03:45:39;9.90;99.90
11965;DHT22;6042;41.326;19.826;2022-12-24T03:48:08;10.00;99.90
11965;DHT22;6042;41.326;19.826;2022-12-24T03:50:38;10.00;99.90
11965;DHT22;6042;41.326;19.826;2022-12-24T03:53:06;10.00;99.90
11965;DHT22;6042;41.326;19.826;2022-12-24T03:55:35;10.10;99.90
11965;DHT22;6042;41.326;19.826;2022-12-24T03:58:04;10.10;99.90
11965;DHT22;6042;41.326;19.826;2022-12-24T04:00:32;10.10;99.90
11965;DHT22;6042;41.326;19.826;2022-12-24T04:03:01;10.10;99.90
11965;DHT22;6042;41.326;19.826;2022-12-24T04:05:29;10.10;99.90
11965;DHT22;6042;41.326;19.826;2022-12-24T04:07:59;10.10;99.90
11965;DHT22;6042;41.326;19.826;2022-12-24T04:10:28;10.10;99.90
11965;DHT22;6042;41.326;19.826;2022-12-24T04:12:56;10.10;99.90
11965;DHT22;6042;41.326;19.826;2022-12-24T04:15:25;10.00;99.90
11965;DHT22;6042;41.326;19.826;2022-12-24T04:17:53;10.00;99.90
11965;DHT22;6042;41.326;19.826;2022-12-24T04:20:23;10.00;99.90
11965;DHT22;6042;41.326;19.826;2022-12-24T04:22:52;10.00;99.90
11965;DHT22;6042;41.326;19.826;2022-12-24T04:25:22;9.90;99.90
11965;DHT22;6042;41.326;19.826;2022-12-24T04:27:51;9.80;99.90
11965;DHT22;6042;41.326;19.826;2022-12-24T04:30:19;9.80;99.90
11965;DHT22;6042;41.326;19.826;2022-12-24T04:32:48;9.80;99.90
11965;DHT22;6042;41.326;19.826;2022-12-24T04:35:16;9.80;99.90
11965;DHT22;6042;41.326;19.826;2022-12-24T04:37:45;9.70;99.90
11965;DHT22;6042;41.326;19.826;2022-12-24T04:40:13;9.70;99.90
11965;DHT22;6042;41.326;19.826;2022-12-24T04:42:43;9.70;99.90
11965;DHT22;6042;41.326;19.826;2022-12-24T04:45:12;9.60;99.90
11965;DHT22;6042;41.326;19.826;2022-12-24T04:47:41;9.60;99.90
11965;DHT22;6042;41.326;19.826;2022-12-24T04:50:10;9.60;99.90
11965;DHT22;6042;41.326;19.826;2022-12-24T04:52:38;9.60;99.90
11965;DHT22;6042;41.326;19.826;2022-12-24T04:55:07;9.50;99.90
11965;DHT22;6042;41.326;19.826;2022-12-24T04:57:36;9.50;99.90
11965;DHT22;6042;41.326;19.826;2022-12-24T05:00:07;9.40;99.90
11965;DHT22;6042;41.326;19.826;2022-12-24T05:02:36;9.40;99.90
11965;DHT22;6042;41.326;19.826;2022-12-24T05:05:05;9.50;99.90
11965;DHT22;6042;41.326;19.826;2022-12-24T05:07:34;9.50;99.90
11965;DHT22;6042;41.326;19.826;2022-12-24T05:10:03;9.50;99.90
11965;DHT22;6042;41.326;19.826;2022-12-24T05:12:32;9.50;99.90
11965;DHT22;6042;41.326;19.826;2022-12-24T05:15:00;9.50;99.90
11965;DHT22;6042;41.326;19.826;2022-12-24T05:17:31;9.50;99.90
11965;DHT22;6042;41.326;19.826;2022-12-24T05:20:00;9.50;99.90
11965;DHT22;6042;41.326;19.826;2022-12-24T05:22:28;9.50;99.90
11965;DHT22;6042;41.326;19.826;2022-12-24T05:25:14;9.60;99.90
11965;DHT22;6042;41.326;19.826;2022-12-24T05:28:00;9.60;99.90
11965;DHT22;6042;41.326;19.826;2022-12-24T05:30:29;9.60;99.90
11965;DHT22;6042;41.326;19.826;2022-12-24T05:32:59;9.60;99.90
11965;DHT22;6042;41.326;19.826;2022-12-24T05:35:27;9.50;99.90
11965;DHT22;6042;41.326;19.826;2022-12-24T05:37:57;9.40;99.90
11965;DHT22;6042;41.326;19.826;2022-12-24T05:40:25;9.50;99.90
11965;DHT22;6042;41.326;19.826;2022-12-24T05:42:54;9.60;99.90
11965;DHT22;6042;41.326;19.826;2022-12-24T05:45:22;9.60;99.90
11965;DHT22;6042;41.326;19.826;2022-12-24T05:47:51;9.50;99.90
11965;DHT22;6042;41.326;19.826;2022-12-24T05:50:21;9.50;99.90
11965;DHT22;6042;41.326;19.826;2022-12-24T05:53:03;9.50;99.90
11965;DHT22;6042;41.326;19.826;2022-12-24T05:55:32;9.40;99.90
11965;DHT22;6042;41.326;19.826;2022-12-24T05:58:00;9.30;99.90
11965;DHT22;6042;41.326;19.826;2022-12-24T06:00:29;9.20;99.90
11965;DHT22;6042;41.326;19.826;2022-12-24T06:02:57;9.10;99.90
11965;DHT22;6042;41.326;19.826;2022-12-24T06:05:27;9.00;99.90
11965;DHT22;6042;41.326;19.826;2022-12-24T06:07:56;9.00;99.90
11965;DHT22;6042;41.326;19.826;2022-12-24T06:10:24;8.90;99.90
11965;DHT22;6042;41.326;19.826;2022-12-24T06:12:54;8.90;99.90
11965;DHT22;6042;41.326;19.826;2022-12-24T06:15:23;8.90;99.90
11965;DHT22;6042;41.326;19.826;2022-12-24T06:17:52;8.90;99.90
11965;DHT22;6042;41.326;19.826;2022-12-24T06:20:20;8.90;99.90
11965;DHT22;6042;41.326;19.826;2022-12-24T06:22:50;8.90;99.90
11965;DHT22;6042;41.326;19.826;2022-12-24T06:25:19;8.90;99.90
11965;DHT22;6042;41.326;19.826;2022-12-24T06:27:47;8.90;99.90
11965;DHT22;6042;41.326;19.826;2022-12-24T06:30:16;8.90;99.90
11965;DHT22;6042;41.326;19.826;2022-12-24T06:32:45;8.90;99.90
11965;DHT22;6042;41.326;19.826;2022-12-24T06:35:13;8.90;99.90
11965;DHT22;6042;41.326;19.826;2022-12-24T06:37:41;8.90;99.90
11965;DHT22;6042;41.326;19.826;2022-12-24T06:40:11;8.90;99.90
11965;DHT22;6042;41.326;19.826;2022-12-24T06:42:40;8.90;99.90
11965;DHT22;6042;41.326;19.826;2022-12-24T06:45:09;8.90;99.90
11965;DHT22;6042;41.326;19.826;2022-12-24T06:47:38;9.00;99.90
11965;DHT22;6042;41.326;19.826;2022-12-24T06:50:07;9.00;99.90
11965;DHT22;6042;41.326;19.826;2022-12-24T06:52:36;9.00;99.90
11965;DHT22;6042;41.326;19.826;2022-12-24T06:55:05;9.00;99.90
11965;DHT22;6042;41.326;19.826;2022-12-24T06:57:35;9.10;99.90
11965;DHT22;6042;41.326;19.826;2022-12-24T07:00:05;9.10;99.90
11965;DHT22;6042;41.326;19.826;2022-12-24T07:02:33;9.20;99.90
11965;DHT22;6042;41.326;19.826;2022-12-24T07:05:02;9.30;99.90
11965;DHT22;6042;41.326;19.826;2022-12-24T07:07:31;9.40;99.90
11965;DHT22;6042;41.326;19.826;2022-12-24T07:09:59;9.40;99.90
11965;DHT22;6042;41.326;19.826;2022-12-24T07:12:28;9.40;99.90
11965;DHT22;6042;41.326;19.826;2022-12-24T07:14:57;9.40;99.90
11965;DHT22;6042;41.326;19.826;2022-12-24T07:17:26;9.40;99.90
11965;DHT22;6042;41.326;19.826;2022-12-24T07:19:54;9.40;99.90
11965;DHT22;6042;41.326;19.826;2022-12-24T07:22:23;9.60;99.90
11965;DHT22;6042;41.326;19.826;2022-12-24T07:24:51;9.70;99.90
11965;DHT22;6042;41.326;19.826;2022-12-24T07:27:20;9.90;99.90
11965;DHT22;6042;41.326;19.826;2022-12-24T07:29:48;10.00;99.90
11965;DHT22;6042;41.326;19.826;2022-12-24T07:32:18;10.20;99.90
11965;DHT22;6042;41.326;19.826;2022-12-24T07:34:47;10.20;99.90
11965;DHT22;6042;41.326;19.826;2022-12-24T07:37:15;10.30;99.90
11965;DHT22;6042;41.326;19.826;2022-12-24T07:39:44;10.40;99.90
11965;DHT22;6042;41.326;19.826;2022-12-24T07:42:13;10.40;99.90
11965;DHT22;6042;41.326;19.826;2022-12-24T07:44:41;10.60;99.90
11965;DHT22;6042;41.326;19.826;2022-12-24T07:47:10;10.70;99.90
11965;DHT22;6042;41.326;19.826;2022-12-24T07:49:40;10.80;99.90
11965;DHT22;6042;41.326;19.826;2022-12-24T07:52:08;10.80;99.90
11965;DHT22;6042;41.326;19.826;2022-12-24T07:54:37;10.90;99.90
11965;DHT22;6042;41.326;19.826;2022-12-24T07:57:05;10.90;99.90
11965;DHT22;6042;41.326;19.826;2022-12-24T07:59:34;10.90;99.90
11965;DHT22;6042;41.326;19.826;2022-12-24T08:02:02;11.00;99.90
11965;DHT22;6042;41.326;19.826;2022-12-24T08:04:31;11.00;99.90
11965;DHT22;6042;41.326;19.826;2022-12-24T08:07:03;11.00;99.90
11965;DHT22;6042;41.326;19.826;2022-12-24T08:09:32;11.10;99.90
11965;DHT22;6042;41.326;19.826;2022-12-24T08:12:01;11.10;99.90
11965;DHT22;6042;41.326;19.826;2022-12-24T08:14:30;11.10;99.90
11965;DHT22;6042;41.326;19.826;2022-12-24T08:16:59;11.20;99.90
11965;DHT22;6042;41.326;19.826;2022-12-24T08:19:27;11.20;99.90
11965;DHT22;6042;41.326;19.826;2022-12-24T08:21:56;11.20;99.90
11965;DHT22;6042;41.326;19.826;2022-12-24T08:24:26;11.30;99.90
11965;DHT22;6042;41.326;19.826;2022-12-24T08:26:54;11.30;99.90
11965;DHT22;6042;41.326;19.826;2022-12-24T08:29:23;11.40;99.90
11965;DHT22;6042;41.326;19.826;2022-12-24T08:31:51;11.50;99.90
11965;DHT22;6042;41.326;19.826;2022-12-24T08:34:20;11.60;99.90
11965;DHT22;6042;41.326;19.826;2022-12-24T08:36:48;11.60;99.90
11965;DHT22;6042;41.326;19.826;2022-12-24T08:39:16;11.70;99.90
11965;DHT22;6042;41.326;19.826;2022-12-24T08:41:46;11.70;99.90
11965;DHT22;6042;41.326;19.826;2022-12-24T08:44:15;11.80;99.90
11965;DHT22;6042;41.326;19.826;2022-12-24T08:46:43;11.90;99.90
11965;DHT22;6042;41.326;19.826;2022-12-24T08:49:12;12.00;99.90
11965;DHT22;6042;41.326;19.826;2022-12-24T08:51:41;12.00;99.90
11965;DHT22;6042;41.326;19.826;2022-12-24T08:54:09;12.20;99.90
11965;DHT22;6042;41.326;19.826;2022-12-24T08:56:38;12.30;99.90
11965;DHT22;6042;41.326;19.826;2022-12-24T08:59:09;12.30;99.90
11965;DHT22;6042;41.326;19.826;2022-12-24T09:01:38;12.40;99.90
11965;DHT22;6042;41.326;19.826;2022-12-24T09:04:06;12.50;99.90
11965;DHT22;6042;41.326;19.826;2022-12-24T09:06:35;12.50;99.90
11965;DHT22;6042;41.326;19.826;2022-12-24T09:09:04;12.50;99.90
11965;DHT22;6042;41.326;19.826;2022-12-24T09:11:34;12.60;99.90
11965;DHT22;6042;41.326;19.826;2022-12-24T09:14:04;12.70;99.90
11965;DHT22;6042;41.326;19.826;2022-12-24T09:16:34;12.80;99.90
11965;DHT22;6042;41.326;19.826;2022-12-24T09:19:02;12.90;99.90
11965;DHT22;6042;41.326;19.826;2022-12-24T09:21:31;12.80;99.90
11965;DHT22;6042;41.326;19.826;2022-12-24T09:23:59;12.80;99.90
11965;DHT22;6042;41.326;19.826;2022-12-24T09:26:31;12.90;99.90
11965;DHT22;6042;41.326;19.826;2022-12-24T09:29:00;12.90;99.90
11965;DHT22;6042;41.326;19.826;2022-12-24T09:31:28;13.00;99.90
11965;DHT22;6042;41.326;19.826;2022-12-24T09:33:58;13.00;99.90
11965;DHT22;6042;41.326;19.826;2022-12-24T09:36:27;13.00;99.90
11965;DHT22;6042;41.326;19.826;2022-12-24T09:38:56;13.00;99.90
11965;DHT22;6042;41.326;19.826;2022-12-24T09:41:35;12.80;99.90
11965;DHT22;6042;41.326;19.826;2022-12-24T09:44:18;12.80;99.90
11965;DHT22;6042;41.326;19.826;2022-12-24T09:46:49;13.00;99.90
11965;DHT22;6042;41.326;19.826;2022-12-24T09:49:22;13.00;99.90
11965;DHT22;6042;41.326;19.826;2022-12-24T09:51:56;13.10;99.90
11965;DHT22;6042;41.326;19.826;2022-12-24T09:54:30;13.20;99.90
11965;DHT22;6042;41.326;19.826;2022-12-24T09:57:04;13.40;99.90
11965;DHT22;6042;41.326;19.826;2022-12-24T09:59:40;13.50;99.90
11965;DHT22;6042;41.326;19.826;2022-12-24T10:02:12;13.60;99.90
11965;DHT22;6042;41.326;19.826;2022-12-24T10:04:45;13.80;99.90
11965;DHT22;6042;41.326;19.826;2022-12-24T10:07:26;13.80;99.90
11965;DHT22;6042;41.326;19.826;2022-12-24T10:10:01;14.00;99.90
11965;DHT22;6042;41.326;19.826;2022-12-24T10:12:33;14.20;99.90
11965;DHT22;6042;41.326;19.826;2022-12-24T10:15:13;14.50;99.90
11965;DHT22;6042;41.326;19.826;2022-12-24T10:17:54;14.80;99.90
11965;DHT22;6042;41.326;19.826;2022-12-24T10:20:44;14.90;99.90
11965;DHT22;6042;41.326;19.826;2022-12-24T10:23:21;15.00;99.90
11965;DHT22;6042;41.326;19.826;2022-12-24T10:25:59;15.20;99.90
11965;DHT22;6042;41.326;19.826;2022-12-24T10:28:35;15.30;99.90
11965;DHT22;6042;41.326;19.826;2022-12-24T10:31:06;15.20;99.90
11965;DHT22;6042;41.326;19.826;2022-12-24T10:33:39;15.20;99.90
11965;DHT22;6042;41.326;19.826;2022-12-24T10:36:16;15.30;99.90
11965;DHT22;6042;41.326;19.826;2022-12-24T10:38:46;15.30;99.90
11965;DHT22;6042;41.326;19.826;2022-12-24T10:41:15;15.40;99.90
11965;DHT22;6042;41.326;19.826;2022-12-24T10:43:45;15.40;99.90
11965;DHT22;6042;41.326;19.826;2022-12-24T10:46:17;15.50;99.90
11965;DHT22;6042;41.326;19.826;2022-12-24T10:48:51;15.60;99.90
11965;DHT22;6042;41.326;19.826;2022-12-24T10:51:28;15.60;99.90
11965;DHT22;6042;41.326;19.826;2022-12-24T10:54:04;15.80;99.90
11965;DHT22;6042;41.326;19.826;2022-12-24T10:56:39;16.30;99.90
11965;DHT22;6042;41.326;19.826;2022-12-24T10:59:23;16.50;99.90
11965;DHT22;6042;41.326;19.826;2022-12-24T11:01:53;16.30;99.90
11965;DHT22;6042;41.326;19.826;2022-12-24T11:04:24;16.10;99.90
11965;DHT22;6042;41.326;19.826;2022-12-24T11:06:56;15.90;99.90
11965;DHT22;6042;41.326;19.826;2022-12-24T11:09:28;15.70;99.90
11965;DHT22;6042;41.326;19.826;2022-12-24T11:11:58;15.70;99.90
11965;DHT22;6042;41.326;19.826;2022-12-24T11:14:36;15.60;99.90
11965;DHT22;6042;41.326;19.826;2022-12-24T11:17:06;15.50;99.90
11965;DHT22;6042;41.326;19.826;2022-12-24T11:19:36;15.30;99.90
11965;DHT22;6042;41.326;19.826;2022-12-24T11:22:17;15.40;99.90
11965;DHT22;6042;41.326;19.826;2022-12-24T11:24:59;15.40;99.90
11965;DHT22;6042;41.326;19.826;2022-12-24T11:27:32;15.50;99.90
11965;DHT22;6042;41.326;19.826;2022-12-24T11:30:27;15.70;99.90
11965;DHT22;6042;41.326;19.826;2022-12-24T11:33:15;15.60;99.90
11965;DHT22;6042;41.326;19.826;2022-12-24T11:35:51;15.50;99.90
11965;DHT22;6042;41.326;19.826;2022-12-24T11:38:23;15.60;99.90
11965;DHT22;6042;41.326;19.826;2022-12-24T11:41:04;15.70;99.90
11965;DHT22;6042;41.326;19.826;2022-12-24T11:43:37;15.70;99.90
11965;DHT22;6042;41.326;19.826;2022-12-24T11:46:17;15.70;99.90
11965;DHT22;6042;41.326;19.826;2022-12-24T11:48:46;15.90;99.90
11965;DHT22;6042;41.326;19.826;2022-12-24T11:51:22;15.70;99.90
11965;DHT22;6042;41.326;19.826;2022-12-24T11:53:59;15.70;99.90
11965;DHT22;6042;41.326;19.826;2022-12-24T11:56:35;15.60;99.90
11965;DHT22;6042;41.326;19.826;2022-12-24T11:59:14;15.60;99.90
11965;DHT22;6042;41.326;19.826;2022-12-24T12:01:51;15.70;99.90
11965;DHT22;6042;41.326;19.826;2022-12-24T12:04:23;15.80;99.90
11965;DHT22;6042;41.326;19.826;2022-12-24T12:06:57;15.80;99.90
11965;DHT22;6042;41.326;19.826;2022-12-24T12:09:31;15.90;99.90
11965;DHT22;6042;41.326;19.826;2022-12-24T12:12:04;15.80;99.90
11965;DHT22;6042;41.326;19.826;2022-12-24T12:14:37;15.90;99.90
11965;DHT22;6042;41.326;19.826;2022-12-24T12:17:15;15.70;99.90
11965;DHT22;6042;41.326;19.826;2022-12-24T12:19:51;15.70;99.90
11965;DHT22;6042;41.326;19.826;2022-12-24T12:22:25;15.70;99.90
11965;DHT22;6042;41.326;19.826;2022-12-24T12:24:58;15.50;99.90
11965;DHT22;6042;41.326;19.826;2022-12-24T12:27:32;15.30;99.90
11965;DHT22;6042;41.326;19.826;2022-12-24T12:30:05;15.30;99.90
11965;DHT22;6042;41.326;19.826;2022-12-24T12:32:41;15.30;99.90
11965;DHT22;6042;41.326;19.826;2022-12-24T12:35:20;15.20;99.90
11965;DHT22;6042;41.326;19.826;2022-12-24T12:37:54;15.20;99.90
11965;DHT22;6042;41.326;19.826;2022-12-24T12:40:44;15.20;99.90
11965;DHT22;6042;41.326;19.826;2022-12-24T12:43:30;15.30;99.90
11965;DHT22;6042;41.326;19.826;2022-12-24T12:46:05;15.40;99.90
11965;DHT22;6042;41.326;19.826;2022-12-24T12:48:52;15.30;99.90
11965;DHT22;6042;41.326;19.826;2022-12-24T12:51:37;15.40;99.90
11965;DHT22;6042;41.326;19.826;2022-12-24T12:54:20;15.40;99.90
11965;DHT22;6042;41.326;19.826;2022-12-24T12:56:57;15.40;99.90
11965;DHT22;6042;41.326;19.826;2022-12-24T12:59:32;15.50;99.90
11965;DHT22;6042;41.326;19.826;2022-12-24T13:02:20;15.50;99.90
11965;DHT22;6042;41.326;19.826;2022-12-24T13:08:27;15.60;99.90
11965;DHT22;6042;41.326;19.826;2022-12-24T13:11:38;15.70;99.90
11965;DHT22;6042;41.326;19.826;2022-12-24T13:14:21;15.70;99.90
11965;DHT22;6042;41.326;19.826;2022-12-24T13:17:20;15.80;99.90
11965;DHT22;6042;41.326;19.826;2022-12-24T13:20:15;15.70;99.90
11965;DHT22;6042;41.326;19.826;2022-12-24T13:22:50;15.70;99.90
11965;DHT22;6042;41.326;19.826;2022-12-24T13:25:22;15.70;99.90
11965;DHT22;6042;41.326;19.826;2022-12-24T13:27:53;15.60;99.90
11965;DHT22;6042;41.326;19.826;2022-12-24T13:30:34;15.70;99.90
11965;DHT22;6042;41.326;19.826;2022-12-24T13:33:06;15.60;99.90
11965;DHT22;6042;41.326;19.826;2022-12-24T13:35:56;15.70;99.90
11965;DHT22;6042;41.326;19.826;2022-12-24T13:38:32;15.70;99.90
11965;DHT22;6042;41.326;19.826;2022-12-24T13:41:36;15.40;99.90
11965;DHT22;6042;41.326;19.826;2022-12-24T13:44:16;15.60;99.90
11965;DHT22;6042;41.326;19.826;2022-12-24T13:46:54;15.50;99.90
11965;DHT22;6042;41.326;19.826;2022-12-24T13:49:31;15.60;99.90
11965;DHT22;6042;41.326;19.826;2022-12-24T13:52:20;15.40;99.90
11965;DHT22;6042;41.326;19.826;2022-12-24T13:55:12;15.30;99.90
11965;DHT22;6042;41.326;19.826;2022-12-24T13:57:45;15.30;99.90
11965;DHT22;6042;41.326;19.826;2022-12-24T14:00:28;15.40;99.90
11965;DHT22;6042;41.326;19.826;2022-12-24T14:03:01;15.50;99.90
11965;DHT22;6042;41.326;19.826;2022-12-24T14:05:33;15.50;99.90
11965;DHT22;6042;41.326;19.826;2022-12-24T14:08:05;15.50;99.90
11965;DHT22;6042;41.326;19.826;2022-12-24T14:10:39;15.40;99.90
11965;DHT22;6042;41.326;19.826;2022-12-24T14:16:12;15.00;99.90
11965;DHT22;6042;41.326;19.826;2022-12-24T14:18:45;14.90;99.90
11965;DHT22;6042;41.326;19.826;2022-12-24T14:21:17;14.70;99.90
11965;DHT22;6042;41.326;19.826;2022-12-24T14:23:52;14.60;99.90
11965;DHT22;6042;41.326;19.826;2022-12-24T14:26:24;14.50;99.90
11965;DHT22;6042;41.326;19.826;2022-12-24T14:28:54;14.40;99.90
11965;DHT22;6042;41.326;19.826;2022-12-24T14:31:24;14.40;99.90
11965;DHT22;6042;41.326;19.826;2022-12-24T14:34:06;14.50;99.90
11965;DHT22;6042;41.326;19.826;2022-12-24T14:36:35;14.50;99.90
11965;DHT22;6042;41.326;19.826;2022-12-24T14:39:07;14.40;99.90
11965;DHT22;6042;41.326;19.826;2022-12-24T14:41:44;14.50;99.90
11965;DHT22;6042;41.326;19.826;2022-12-24T14:44:22;14.40;99.90
11965;DHT22;6042;41.326;19.826;2022-12-24T14:47:11;14.30;99.90
11965;DHT22;6042;41.326;19.826;2022-12-24T14:50:03;14.30;99.90
11965;DHT22;6042;41.326;19.826;2022-12-24T14:52:37;14.30;99.90
11965;DHT22;6042;41.326;19.826;2022-12-24T14:55:30;14.30;99.90
11965;DHT22;6042;41.326;19.826;2022-12-24T14:58:24;14.20;99.90
11965;DHT22;6042;41.326;19.826;2022-12-24T15:00:55;14.20;99.90
11965;DHT22;6042;41.326;19.826;2022-12-24T15:03:26;14.20;99.90
11965;DHT22;6042;41.326;19.826;2022-12-24T15:05:58;14.20;99.90
11965;DHT22;6042;41.326;19.826;2022-12-24T15:08:30;14.10;99.90
11965;DHT22;6042;41.326;19.826;2022-12-24T15:11:03;14.00;99.90
11965;DHT22;6042;41.326;19.826;2022-12-24T15:13:36;13.90;99.90
11965;DHT22;6042;41.326;19.826;2022-12-24T15:16:08;13.90;99.90
11965;DHT22;6042;41.326;19.826;2022-12-24T15:18:47;13.80;99.90
11965;DHT22;6042;41.326;19.826;2022-12-24T15:21:21;13.80;99.90
11965;DHT22;6042;41.326;19.826;2022-12-24T15:23:52;13.80;99.90
11965;DHT22;6042;41.326;19.826;2022-12-24T15:26:24;13.70;99.90
11965;DHT22;6042;41.326;19.826;2022-12-24T15:28:55;13.60;99.90
11965;DHT22;6042;41.326;19.826;2022-12-24T15:31:30;13.60;99.90
11965;DHT22;6042;41.326;19.826;2022-12-24T15:33:59;13.60;99.90
11965;DHT22;6042;41.326;19.826;2022-12-24T15:36:30;13.50;99.90
11965;DHT22;6042;41.326;19.826;2022-12-24T15:39:05;13.40;99.90
11965;DHT22;6042;41.326;19.826;2022-12-24T15:41:39;13.40;99.90
11965;DHT22;6042;41.326;19.826;2022-12-24T15:44:32;13.30;99.90
11965;DHT22;6042;41.326;19.826;2022-12-24T15:47:05;13.20;99.90
11965;DHT22;6042;41.326;19.826;2022-12-24T15:49:35;13.10;99.90
11965;DHT22;6042;41.326;19.826;2022-12-24T15:52:08;13.10;99.90
11965;DHT22;6042;41.326;19.826;2022-12-24T15:54:42;13.10;99.90
11965;DHT22;6042;41.326;19.826;2022-12-24T15:57:13;13.10;99.90
11965;DHT22;6042;41.326;19.826;2022-12-24T15:59:43;13.20;99.90
11965;DHT22;6042;41.326;19.826;2022-12-24T16:02:34;13.10;99.90
11965;DHT22;6042;41.326;19.826;2022-12-24T16:05:29;13.10;99.90
11965;DHT22;6042;41.326;19.826;2022-12-24T16:08:01;13.00;99.90
11965;DHT22;6042;41.326;19.826;2022-12-24T16:10:38;13.00;99.90
11965;DHT22;6042;41.326;19.826;2022-12-24T16:13:15;13.00;99.90
11965;DHT22;6042;41.326;19.826;2022-12-24T16:15:47;13.00;99.90
11965;DHT22;6042;41.326;19.826;2022-12-24T16:18:18;13.00;99.90
11965;DHT22;6042;41.326;19.826;2022-12-24T16:20:50;13.00;99.90
11965;DHT22;6042;41.326;19.826;2022-12-24T16:23:22;12.90;99.90